Time;durP1;ratioP1;P1;durP2;ratioP2;P2;SDS_P1;SDS_P2;PMS_P1;PMS_P2;Temp;Humidity;BMP_temperature;BMP_pressure;BME280_temperature;BME280_humidity;BME280_pressure;Samples;Min_cycle;Max_cycle;Signal;HPM_P1;HPM_P2
2022/11/01 00:00:17;;;;;;;13.17;11.00;;;14.20;99.90;;;;;;5065604;28;20219;-87
2022/11/01 00:02:43;;;;;;;13.77;11.83;;;14.20;99.90;;;;;;5065839;28;20271;-88
2022/11/01 00:05:09;;;;;;;12.43;11.33;;;14.20;99.90;;;;;;5049600;28;20219;-89
2022/11/01 00:07:35;;;;;;;13.50;12.07;;;14.30;99.90;;;;;;5060654;28;20200;-88
2022/11/01 00:10:01;;;;;;;13.17;11.97;;;14.30;99.90;;;;;;5064224;28;20211;-89
2022/11/01 00:12:28;;;;;;;13.93;11.63;;;14.20;99.90;;;;;;5061585;28;20187;-90
2022/11/01 00:14:54;;;;;;;12.90;11.53;;;14.10;99.90;;;;;;5058167;28;20395;-88
2022/11/01 00:17:20;;;;;;;12.40;11.30;;;14.10;99.90;;;;;;5058118;28;20205;-89
2022/11/01 00:19:46;;;;;;;13.57;12.17;;;14.00;99.90;;;;;;5058207;28;20217;-88
2022/11/01 00:22:12;;;;;;;13.50;12.20;;;14.10;99.90;;;;;;5060947;28;20318;-91
2022/11/01 00:24:37;;;;;;;13.90;12.33;;;14.00;99.90;;;;;;5051660;28;20189;-91
2022/11/01 00:27:03;;;;;;;12.97;11.67;;;14.00;99.90;;;;;;5056109;28;20228;-89
2022/11/01 00:29:29;;;;;;;12.50;11.40;;;14.10;99.90;;;;;;5062378;28;20212;-90
2022/11/01 00:31:54;;;;;;;13.07;11.87;;;14.10;99.90;;;;;;5051960;28;20197;-91
2022/11/01 00:34:20;;;;;;;13.60;12.30;;;14.10;99.90;;;;;;5061832;28;20207;-90
2022/11/01 00:36:46;;;;;;;12.17;11.07;;;14.00;99.90;;;;;;5052060;28;20198;-89
2022/11/01 00:39:13;;;;;;;12.73;11.60;;;13.90;99.90;;;;;;5052943;28;20218;-90
2022/11/01 00:41:39;;;;;;;14.37;12.87;;;14.00;99.90;;;;;;5053751;28;20215;-90
2022/11/01 00:44:05;;;;;;;16.23;12.43;;;14.00;99.90;;;;;;5055131;28;20223;-90
2022/11/01 00:46:31;;;;;;;14.63;12.93;;;14.00;99.90;;;;;;5058182;28;20615;-89
2022/11/01 00:48:57;;;;;;;15.47;14.07;;;14.00;99.90;;;;;;5054051;28;20242;-90
2022/11/01 00:51:23;;;;;;;14.00;12.63;;;14.00;99.90;;;;;;5052862;28;20193;-91
2022/11/01 00:53:49;;;;;;;17.53;13.93;;;14.00;99.90;;;;;;5046777;28;20275;-90
2022/11/01 00:56:15;;;;;;;18.33;14.43;;;13.90;99.90;;;;;;5054144;28;20209;-89
2022/11/01 00:58:41;;;;;;;16.97;13.17;;;13.90;99.90;;;;;;5051377;28;20218;-89
2022/11/01 01:01:06;;;;;;;15.57;13.93;;;13.80;99.90;;;;;;5059945;28;20216;-87
2022/11/01 01:03:33;;;;;;;15.20;13.67;;;13.80;99.90;;;;;;5068899;28;20177;-87
2022/11/01 01:05:59;;;;;;;13.30;12.07;;;13.80;99.90;;;;;;5060492;28;20192;-90
2022/11/01 01:08:25;;;;;;;13.13;11.97;;;13.70;99.90;;;;;;5058345;28;20212;-90
2022/11/01 01:10:51;;;;;;;14.00;12.57;;;13.80;99.90;;;;;;5058187;28;20199;-88
2022/11/01 01:13:18;;;;;;;14.17;12.67;;;13.80;99.90;;;;;;5050408;28;20189;-91
2022/11/01 01:15:44;;;;;;;14.20;12.63;;;13.80;99.90;;;;;;5052839;28;20217;-91
2022/11/01 01:18:09;;;;;;;12.73;11.60;;;13.70;99.90;;;;;;5050332;28;20192;-91
2022/11/01 01:20:35;;;;;;;17.83;12.87;;;13.80;99.90;;;;;;5045402;28;20197;-90
2022/11/01 01:23:01;;;;;;;12.83;11.63;;;13.80;99.90;;;;;;5051618;28;20184;-89
2022/11/01 01:25:27;;;;;;;12.00;10.83;;;13.80;99.90;;;;;;5051217;28;20192;-92
2022/11/01 01:27:54;;;;;;;12.83;11.63;;;13.90;99.90;;;;;;5047101;28;20196;-91
2022/11/01 01:30:20;;;;;;;12.60;11.40;;;13.80;99.90;;;;;;5049825;28;20208;-91
2022/11/01 01:32:45;;;;;;;13.30;11.17;;;13.70;99.90;;;;;;5052139;28;20206;-91
2022/11/01 01:35:11;;;;;;;13.00;11.63;;;13.70;99.90;;;;;;5049634;28;20198;-91
2022/11/01 01:37:37;;;;;;;12.47;11.27;;;13.80;99.90;;;;;;5044120;28;20202;-91
2022/11/01 01:40:03;;;;;;;17.20;11.43;;;13.70;99.90;;;;;;5045386;28;20808;-90
2022/11/01 01:42:40;;;;;;;12.00;10.90;;;13.70;99.90;;;;;;5046204;28;20276;-90
2022/11/01 01:45:28;;;;;;;12.13;10.97;;;13.70;99.90;;;;;;5050921;28;20180;-89
2022/11/01 01:47:57;;;;;;;12.43;11.20;;;13.60;99.90;;;;;;5052552;28;20196;-90
2022/11/01 01:50:43;;;;;;;11.70;10.57;;;13.60;99.90;;;;;;5049543;28;20267;-90
2022/11/01 01:53:19;;;;;;;13.33;10.27;;;13.50;99.90;;;;;;5027026;28;20229;-90
2022/11/01 01:55:45;;;;;;;11.77;10.53;;;13.80;99.90;;;;;;5045844;28;20198;-90
2022/11/01 01:58:13;;;;;;;10.77;9.80;;;13.90;99.90;;;;;;5042545;28;20285;-90
2022/11/01 02:00:40;;;;;;;11.20;10.00;;;14.00;99.90;;;;;;5057161;28;20661;-91
2022/11/01 02:03:06;;;;;;;11.03;10.13;;;14.10;99.90;;;;;;5054016;28;20184;-91
2022/11/01 02:05:55;;;;;;;11.03;10.07;;;14.10;99.90;;;;;;5046101;28;20214;-91
2022/11/01 02:08:27;;;;;;;10.43;9.53;;;14.20;99.90;;;;;;5046153;28;20270;-91
2022/11/01 02:11:00;;;;;;;11.53;10.43;;;14.20;99.90;;;;;;5049699;28;20640;-91
2022/11/01 02:13:25;;;;;;;11.23;10.10;;;14.20;99.90;;;;;;5049418;28;20274;-91
2022/11/01 02:16:06;;;;;;;12.33;10.90;;;14.00;99.90;;;;;;5055113;28;20265;-91
2022/11/01 02:18:42;;;;;;;11.73;10.63;;;13.70;99.90;;;;;;5049044;28;20696;-91
2022/11/01 02:21:17;;;;;;;13.03;11.20;;;13.60;99.90;;;;;;5051517;28;20196;-90
2022/11/01 02:23:58;;;;;;;13.13;11.37;;;13.70;99.90;;;;;;5054893;28;20187;-91
2022/11/01 02:26:55;;;;;;;18.33;12.07;;;13.70;99.90;;;;;;5057584;28;20204;-90
2022/11/01 02:29:28;;;;;;;12.23;11.03;;;13.80;99.90;;;;;;5053220;28;20665;-89
2022/11/01 02:31:53;;;;;;;12.53;11.27;;;13.80;99.90;;;;;;5059117;28;20202;-90
2022/11/01 02:34:40;;;;;;;12.60;11.40;;;13.80;99.90;;;;;;5059026;28;20289;-89
2022/11/01 02:37:22;;;;;;;16.43;12.47;;;13.80;99.90;;;;;;5063926;28;20165;-89
2022/11/01 02:39:53;;;;;;;12.50;11.30;;;13.80;99.90;;;;;;5064044;28;20284;-89
2022/11/01 02:42:24;;;;;;;15.30;10.37;;;13.90;99.90;;;;;;5062993;28;20256;-90
2022/11/01 02:45:10;;;;;;;11.60;10.40;;;14.00;99.90;;;;;;5061937;28;20176;-90
2022/11/01 02:47:37;;;;;;;11.13;9.80;;;14.00;99.90;;;;;;5061979;28;20236;-92
2022/11/01 02:50:06;;;;;;;13.83;10.53;;;14.00;99.90;;;;;;5061650;28;20789;-90
2022/11/01 02:52:37;;;;;;;14.90;13.67;;;14.00;99.90;;;;;;5063166;28;20212;-90
2022/11/01 02:55:32;;;;;;;12.20;10.90;;;14.20;99.90;;;;;;5062158;28;20184;-90
2022/11/01 02:58:14;;;;;;;12.00;10.90;;;14.10;99.90;;;;;;5061203;28;20199;-90
2022/11/01 03:00:42;;;;;;;13.53;11.67;;;14.20;99.90;;;;;;5061126;28;20191;-90
2022/11/01 03:03:21;;;;;;;12.77;11.57;;;14.30;99.90;;;;;;5044771;28;20184;-90
2022/11/01 03:05:59;;;;;;;13.83;10.90;;;14.30;99.90;;;;;;5061867;28;20552;-90
2022/11/01 03:08:36;;;;;;;12.30;10.77;;;14.30;99.90;;;;;;5062986;28;20278;-90
2022/11/01 03:11:16;;;;;;;11.20;10.10;;;14.30;99.90;;;;;;5070023;28;20179;-90
2022/11/01 03:13:42;;;;;;;11.80;10.63;;;14.30;99.90;;;;;;5062416;28;20180;-92
2022/11/01 03:16:14;;;;;;;12.07;10.70;;;14.30;99.90;;;;;;5059231;28;20181;-90
2022/11/01 03:18:58;;;;;;;11.97;10.87;;;14.20;99.90;;;;;;5068127;28;20215;-90
2022/11/01 03:21:28;;;;;;;11.33;10.20;;;14.40;99.90;;;;;;5082343;28;20330;-90
2022/11/01 03:24:03;;;;;;;11.87;10.80;;;14.40;99.90;;;;;;5081333;28;20182;-90
2022/11/01 03:26:32;;;;;;;12.50;10.63;;;14.50;99.90;;;;;;5082796;28;20163;-90
2022/11/01 03:29:02;;;;;;;11.33;10.07;;;14.50;99.90;;;;;;5081548;28;20243;-90
2022/11/01 03:31:31;;;;;;;11.83;10.80;;;14.50;99.90;;;;;;5084473;28;20178;-90
2022/11/01 03:34:00;;;;;;;11.90;10.50;;;14.50;99.90;;;;;;5083830;28;20187;-90
2022/11/01 03:36:37;;;;;;;10.90;9.77;;;14.40;99.90;;;;;;5083568;28;20189;-90
2022/11/01 03:39:27;;;;;;;11.57;10.47;;;14.30;99.90;;;;;;5083187;28;20277;-89
2022/11/01 03:42:00;;;;;;;12.77;11.47;;;14.30;99.90;;;;;;5082261;28;20224;-90
2022/11/01 03:44:29;;;;;;;13.47;12.07;;;14.20;99.90;;;;;;5083904;28;20251;-90
2022/11/01 03:46:55;;;;;;;14.13;12.50;;;14.30;99.90;;;;;;5082844;28;20181;-89
2022/11/01 03:49:20;;;;;;;13.03;11.83;;;14.20;99.90;;;;;;5082273;28;20258;-89
2022/11/01 03:51:47;;;;;;;13.33;12.00;;;14.10;99.90;;;;;;5088222;28;20211;-91
2022/11/01 03:54:13;;;;;;;11.63;10.63;;;14.10;99.90;;;;;;5079024;28;20183;-93
2022/11/01 03:56:41;;;;;;;13.53;11.57;;;14.10;99.90;;;;;;5059689;28;20228;-91
2022/11/01 03:59:09;;;;;;;16.63;13.00;;;14.10;99.90;;;;;;5048184;28;20201;-89
2022/11/01 04:01:35;;;;;;;14.23;12.77;;;14.00;99.90;;;;;;5058751;28;20213;-90
2022/11/01 04:04:00;;;;;;;14.57;13.13;;;13.90;99.90;;;;;;5043626;28;20243;-89
2022/11/01 04:06:26;;;;;;;16.47;13.23;;;13.80;99.90;;;;;;5043550;28;20186;-89
2022/11/01 04:08:52;;;;;;;14.50;12.53;;;13.80;99.90;;;;;;5043288;28;20686;-89
2022/11/01 04:11:17;;;;;;;14.30;12.43;;;13.80;99.90;;;;;;5041675;28;20182;-89
2022/11/01 04:13:43;;;;;;;14.33;12.97;;;13.80;99.90;;;;;;5045640;28;20180;-91
2022/11/01 08:25:14;;;;;;;2.67;2.43;;;15.70;99.90;;;;;;5054284;28;20228;-96
2022/11/01 08:33:00;;;;;;;2.60;2.40;;;15.80;99.90;;;;;;5255671;22;20272;-94
2022/11/01 08:36:13;;;;;;;2.57;2.30;;;15.90;99.90;;;;;;5085328;28;20443;-93
2022/11/01 08:38:39;;;;;;;3.63;2.57;;;16.00;99.90;;;;;;5006035;28;20229;-93
2022/11/01 08:41:10;;;;;;;2.50;2.30;;;15.90;99.90;;;;;;4969152;28;20270;-93
2022/11/01 08:43:35;;;;;;;2.97;2.37;;;16.00;99.90;;;;;;5018865;28;20194;-93
2022/11/01 08:46:01;;;;;;;2.67;2.47;;;16.00;99.90;;;;;;5054583;28;20176;-93
2022/11/01 08:48:27;;;;;;;2.80;2.40;;;15.90;99.90;;;;;;5051720;28;20208;-92
2022/11/01 08:50:58;;;;;;;2.57;2.30;;;16.00;99.90;;;;;;5069159;28;20194;-92
2022/11/01 08:53:27;;;;;;;2.73;2.40;;;15.90;99.90;;;;;;5053561;28;20207;-92
2022/11/01 08:58:37;;;;;;;3.70;2.53;;;15.90;99.90;;;;;;5170321;22;20249;-92
2022/11/01 09:04:37;;;;;;;2.60;2.40;;;16.00;99.90;;;;;;5049550;28;20722;-92
2022/11/01 09:10:25;;;;;;;3.47;2.40;;;16.20;99.90;;;;;;5042809;28;20241;-92
2022/11/01 09:12:51;;;;;;;4.97;2.93;;;16.20;99.90;;;;;;5046039;28;20208;-93
2022/11/01 09:15:33;;;;;;;4.33;2.73;;;16.40;99.90;;;;;;5047130;28;20235;-92
2022/11/01 09:18:31;;;;;;;4.00;2.70;;;16.50;99.90;;;;;;5040981;28;20211;-91
2022/11/01 09:21:08;;;;;;;3.13;2.53;;;16.50;99.90;;;;;;5038986;28;20198;-92
2022/11/01 09:23:45;;;;;;;4.57;2.73;;;16.50;99.90;;;;;;5044643;28;20203;-91
2022/11/01 09:26:11;;;;;;;3.33;2.80;;;16.60;99.90;;;;;;5065564;22;20337;-84
2022/11/01 09:28:39;;;;;;;4.40;2.70;;;16.70;99.90;;;;;;5049299;28;20188;-87
2022/11/01 09:31:11;;;;;;;3.30;2.67;;;16.80;99.90;;;;;;5048297;28;20206;-84
2022/11/01 09:33:36;;;;;;;4.90;2.87;;;16.80;99.90;;;;;;5050423;28;20855;-84
2022/11/01 09:36:03;;;;;;;3.30;2.90;;;16.80;99.90;;;;;;5062834;22;20232;-90
2022/11/01 09:38:28;;;;;;;3.93;2.87;;;16.80;99.90;;;;;;5050762;28;20199;-90
2022/11/01 09:41:03;;;;;;;2.70;2.50;;;16.90;99.90;;;;;;5032940;28;20192;-90
2022/11/01 09:43:42;;;;;;;3.03;2.60;;;16.80;99.90;;;;;;5034968;28;20200;-90
2022/11/01 09:46:12;;;;;;;4.37;2.60;;;16.80;99.90;;;;;;5031684;28;20214;-91
2022/11/01 09:48:43;;;;;;;2.90;2.60;;;16.60;99.90;;;;;;5033891;28;20180;-90
2022/11/01 09:51:19;;;;;;;4.37;3.13;;;16.40;99.40;;;;;;5047466;28;20182;-90
2022/11/01 09:53:54;;;;;;;6.43;3.23;;;16.30;99.70;;;;;;5035065;28;20199;-92
2022/11/01 09:56:37;;;;;;;5.23;3.17;;;16.30;99.90;;;;;;5051301;28;20219;-91
2022/11/01 09:59:31;;;;;;;4.67;2.83;;;16.10;97.50;;;;;;5031599;28;20207;-91
2022/11/01 10:02:17;;;;;;;6.07;2.70;;;16.20;99.90;;;;;;5028887;28;20237;-91
2022/11/01 10:05:04;;;;;;;4.63;3.30;;;16.20;99.30;;;;;;5033076;28;20215;-91
2022/11/01 10:07:54;;;;;;;3.13;2.63;;;16.20;99.90;;;;;;5053894;28;20216;-92
2022/11/01 10:11:06;;;;;;;3.87;2.67;;;16.10;96.70;;;;;;5050909;28;20186;-91
2022/11/01 10:13:44;;;;;;;3.47;2.63;;;16.30;96.10;;;;;;5033871;28;20191;-91
2022/11/01 10:16:28;;;;;;;4.40;2.50;;;16.40;95.50;;;;;;5033417;28;20204;-91
2022/11/01 10:19:00;;;;;;;3.17;2.40;;;16.70;94.70;;;;;;5051478;28;20191;-91
2022/11/01 10:21:50;;;;;;;2.63;2.30;;;16.90;92.50;;;;;;5035610;28;20903;-91
2022/11/01 10:24:47;;;;;;;;;;;;;;;;;;;;;
2022/11/01 10:27:36;;;;;;;7.43;2.70;;;17.00;90.70;;;;;;5147925;22;20351;-93
2022/11/01 10:30:54;;;;;;;4.87;2.40;;;16.90;90.20;;;;;;5025802;28;20194;-93
2022/11/01 10:33:55;;;;;;;3.97;2.80;;;16.60;89.00;;;;;;5014365;28;20638;-93
2022/11/01 10:37:14;;;;;;;3.03;2.47;;;16.60;88.80;;;;;;5041502;28;20855;-93
2022/11/01 10:40:00;;;;;;;;;;;;;;;;;;;;;
2022/11/01 10:42:42;;;;;;;3.47;2.27;;;16.40;90.30;;;;;;5035854;28;20208;-93
2022/11/01 10:45:14;;;;;;;4.53;2.80;;;16.40;89.40;;;;;;5037588;28;20189;-93
2022/11/01 10:47:55;;;;;;;3.00;2.33;;;16.40;89.60;;;;;;5037925;28;20183;-94
2022/11/01 10:50:32;;;;;;;3.23;2.40;;;16.50;90.00;;;;;;5038185;28;20182;-92
2022/11/01 10:53:09;;;;;;;3.63;2.20;;;16.60;89.10;;;;;;5032152;28;20196;-92
2022/11/01 10:56:21;;;;;;;4.97;2.50;;;16.80;88.90;;;;;;5034892;28;20295;-92
2022/11/01 10:58:47;;;;;;;4.67;2.23;;;17.00;87.20;;;;;;4973271;28;20191;-93
2022/11/01 11:01:25;;;;;;;5.37;2.60;;;17.30;88.80;;;;;;5036212;28;20232;-93
2022/11/01 11:04:04;;;;;;;;;;;;;;;;;;;;;
2022/11/01 11:07:10;;;;;;;;;;;;;;;;;;;;;
2022/11/01 11:09:50;;;;;;;4.67;2.40;;;17.80;80.30;;;;;;5043692;28;20248;-91
2022/11/01 11:12:41;;;;;;;3.73;2.70;;;17.80;79.60;;;;;;5039219;28;20253;-92
2022/11/01 11:15:49;;;;;;;8.33;2.57;;;17.80;77.60;;;;;;5036650;28;20205;-91
2022/11/01 11:19:01;;;;;;;4.37;2.37;;;17.60;76.70;;;;;;5042295;28;20830;-91
2022/11/01 11:22:13;;;;;;;4.53;2.77;;;17.60;78.40;;;;;;5039028;28;20326;-90
2022/11/01 11:25:36;;;;;;;;;;;;;;;;;;;;;
2022/11/01 11:32:15;;;;;;;4.18;2.45;;;18.50;76.90;;;;;;4963319;28;20214;-91
2022/11/01 11:35:12;;;;;;;2.50;2.30;;;18.60;72.50;;;;;;4994233;28;20216;-91
2022/11/01 11:41:43;;;;;;;5.28;2.80;;;18.70;72.40;;;;;;5012725;28;20211;-91
2022/11/01 11:44:49;;;;;;;4.05;2.45;;;18.50;71.70;;;;;;4945313;28;20698;-90
2022/11/01 11:47:48;;;;;;;5.20;2.63;;;18.70;70.10;;;;;;4982142;28;20223;-90
2022/11/01 11:50:49;;;;;;;3.50;2.00;;;18.50;69.70;;;;;;5038541;28;20211;-89
2022/11/01 11:53:31;;;;;;;4.63;2.53;;;18.60;68.30;;;;;;5041953;28;20195;-92
2022/11/01 11:56:40;;;;;;;4.15;2.30;;;18.70;69.70;;;;;;5044110;28;20214;-92
2022/11/01 11:59:38;;;;;;;;;;;;;;;;;;;;;
2022/11/01 12:02:21;;;;;;;3.33;2.20;;;18.30;68.00;;;;;;5056300;28;20241;-92
2022/11/01 12:05:03;;;;;;;3.63;2.50;;;17.80;70.40;;;;;;5046164;28;20197;-93
2022/11/01 12:07:48;;;;;;;4.20;2.40;;;17.50;70.70;;;;;;5034603;28;20221;-93
2022/11/01 12:11:21;;;;;;;3.53;2.20;;;17.20;73.00;;;;;;5038910;28;20292;-93
2022/11/01 12:17:46;;;;;;;4.53;2.30;;;17.00;74.10;;;;;;4929476;29;20217;-91
2022/11/01 12:20:19;;;;;;;4.37;2.40;;;17.10;74.70;;;;;;4913860;29;20201;-89
2022/11/01 12:23:29;;;;;;;5.77;2.20;;;17.30;75.20;;;;;;5042687;28;20239;-92
2022/11/01 12:30:09;;;;;;;5.47;2.43;;;16.90;74.40;;;;;;5040851;28;20306;-90
2022/11/01 12:36:02;;;;;;;4.70;2.10;;;17.00;75.90;;;;;;5092507;22;20320;-85
2022/11/01 12:38:50;;;;;;;4.20;2.50;;;17.00;76.00;;;;;;5075515;28;20189;-83
2022/11/01 12:41:40;;;;;;;4.50;2.50;;;17.50;72.10;;;;;;5075407;28;20759;-86
2022/11/01 12:44:32;;;;;;;4.70;2.80;;;17.90;71.00;;;;;;5045641;28;20216;-84
2022/11/01 12:47:29;;;;;;;2.90;2.58;;;18.10;68.90;;;;;;5046551;28;20185;-86
2022/11/01 12:49:54;;;;;;;2.95;2.30;;;18.60;68.50;;;;;;5064635;28;20194;-87
2022/11/01 12:52:37;;;;;;;5.03;2.35;;;18.40;66.80;;;;;;5069101;22;20243;-86
2022/11/01 12:55:23;;;;;;;2.63;2.42;;;18.20;70.20;;;;;;5020669;28;20203;-86
2022/11/01 12:57:49;;;;;;;6.10;2.90;;;17.90;71.10;;;;;;5020712;28;20309;-87
2022/11/01 13:00:17;;;;;;;5.40;2.33;;;17.60;72.70;;;;;;5020354;28;20271;-85
2022/11/01 13:02:52;;;;;;;4.97;2.50;;;18.00;72.10;;;;;;5021438;28;20687;-86
2022/11/01 13:05:43;;;;;;;5.00;2.60;;;18.60;67.90;;;;;;5020507;28;20199;-87
2022/11/01 13:08:31;;;;;;;3.85;2.60;;;19.10;67.90;;;;;;5015169;28;21677;-87
2022/11/01 13:11:16;;;;;;;4.55;2.67;;;19.00;66.00;;;;;;5020823;28;20187;-86
2022/11/01 13:13:49;;;;;;;5.63;2.78;;;18.80;67.90;;;;;;5026060;28;20220;-86
2022/11/01 13:16:42;;;;;;;4.32;2.50;;;18.60;68.40;;;;;;5024794;28;20195;-85
2022/11/01 13:19:32;;;;;;;4.53;2.60;;;18.20;69.90;;;;;;5007195;28;20186;-85
2022/11/01 13:22:25;;;;;;;4.50;2.53;;;18.00;72.60;;;;;;5024043;28;20228;-85
2022/11/01 13:25:01;;;;;;;3.97;2.55;;;17.80;72.70;;;;;;5016121;28;20242;-85
2022/11/01 13:27:33;;;;;;;3.67;2.40;;;17.70;74.40;;;;;;5024222;28;20380;-85
2022/11/01 13:30:08;;;;;;;5.60;2.80;;;17.80;74.10;;;;;;5002417;28;20196;-84
2022/11/01 13:33:06;;;;;;;5.82;3.95;;;18.20;74.80;;;;;;5007572;28;20220;-84
2022/11/01 13:35:59;;;;;;;5.72;3.03;;;19.00;68.10;;;;;;5025136;28;20189;-87
2022/11/01 13:38:40;;;;;;;8.98;3.33;;;19.70;63.50;;;;;;5025266;28;20188;-86
2022/11/01 13:41:18;;;;;;;4.35;2.95;;;20.10;60.20;;;;;;5023024;28;20193;-86
2022/11/01 13:44:09;;;;;;;3.50;2.58;;;20.30;60.40;;;;;;5025749;28;20564;-85
2022/11/01 13:47:07;;;;;;;3.53;3.15;;;19.90;62.60;;;;;;5023877;28;20185;-86
2022/11/01 13:49:38;;;;;;;5.30;3.10;;;20.40;59.90;;;;;;5031331;28;20195;-85
2022/11/01 13:52:13;;;;;;;4.72;4.32;;;20.90;57.80;;;;;;5035957;28;20228;-85
2022/11/01 13:55:03;;;;;;;5.95;3.30;;;20.80;57.70;;;;;;5035170;28;20193;-86
2022/11/01 13:57:30;;;;;;;7.53;2.72;;;21.00;57.80;;;;;;5017191;28;20209;-88
2022/11/01 13:59:57;;;;;;;3.97;2.65;;;21.00;56.70;;;;;;5033553;28;20205;-85
2022/11/01 14:02:22;;;;;;;4.40;2.88;;;21.10;56.30;;;;;;5024066;28;20644;-85
2022/11/01 14:05:07;;;;;;;5.97;3.28;;;21.00;56.20;;;;;;5023176;28;20204;-85
2022/11/01 14:07:37;;;;;;;5.97;2.60;;;20.80;56.80;;;;;;5007355;28;20212;-84
2022/11/01 14:10:09;;;;;;;6.45;2.72;;;20.90;56.70;;;;;;5022844;28;20729;-84
2022/11/01 14:12:35;;;;;;;5.07;2.95;;;21.00;55.20;;;;;;5017751;28;20771;-85
2022/11/01 14:15:26;;;;;;;4.47;2.70;;;21.10;56.50;;;;;;5019126;28;20197;-86
2022/11/01 14:17:54;;;;;;;7.05;2.67;;;21.40;55.20;;;;;;5019812;28;20196;-85
2022/11/01 14:20:32;;;;;;;6.13;2.85;;;21.30;54.70;;;;;;5019060;28;20819;-85
2022/11/01 14:23:18;;;;;;;5.05;3.30;;;21.10;55.60;;;;;;5020202;28;20247;-85
2022/11/01 14:25:43;;;;;;;4.07;2.95;;;21.10;56.50;;;;;;5017436;28;20561;-85
2022/11/01 14:28:15;;;;;;;7.78;3.00;;;21.20;56.50;;;;;;5019985;28;20185;-86
2022/11/01 14:30:48;;;;;;;5.35;2.92;;;20.90;57.00;;;;;;5019844;28;20181;-85
2022/11/01 14:33:17;;;;;;;5.32;2.72;;;21.30;56.50;;;;;;5021590;28;20215;-86
2022/11/01 14:35:50;;;;;;;4.32;3.67;;;21.50;56.10;;;;;;4999455;28;20189;-83
2022/11/01 14:38:20;;;;;;;5.18;3.13;;;21.50;55.50;;;;;;5022473;28;20270;-83
2022/11/01 14:40:52;;;;;;;3.72;2.60;;;21.40;55.00;;;;;;5023984;28;20192;-86
2022/11/01 14:43:17;;;;;;;4.78;2.80;;;21.60;53.90;;;;;;5025446;28;20283;-85
2022/11/01 14:45:48;;;;;;;4.63;2.83;;;21.50;56.40;;;;;;5023873;28;20275;-87
2022/11/01 14:48:27;;;;;;;3.30;2.80;;;21.60;54.70;;;;;;5009368;28;20199;-85
2022/11/01 14:51:21;;;;;;;4.32;2.53;;;21.70;55.80;;;;;;5024762;28;20188;-87
2022/11/01 14:53:54;;;;;;;3.65;3.05;;;22.10;54.10;;;;;;5027826;28;20311;-86
2022/11/01 14:56:29;;;;;;;5.85;3.20;;;22.20;53.10;;;;;;5026296;28;20176;-86
2022/11/01 14:59:18;;;;;;;4.60;2.88;;;22.10;52.60;;;;;;5006244;28;20184;-87
2022/11/01 15:01:46;;;;;;;5.55;2.63;;;21.60;55.00;;;;;;5023163;28;20359;-87
2022/11/01 15:04:23;;;;;;;4.82;3.10;;;21.30;56.00;;;;;;5026916;28;20176;-84
2022/11/01 15:06:50;;;;;;;6.03;2.97;;;21.20;56.40;;;;;;5027329;28;20529;-85
2022/11/01 15:09:24;;;;;;;4.07;3.15;;;21.10;57.60;;;;;;5023337;28;20188;-86
2022/11/01 15:11:52;;;;;;;5.25;2.95;;;20.90;58.00;;;;;;5022606;28;20853;-86
2022/11/01 15:14:41;;;;;;;4.57;3.10;;;20.70;58.00;;;;;;5025933;28;20185;-85
2022/11/01 15:17:19;;;;;;;5.53;2.92;;;20.10;60.70;;;;;;5026213;28;20189;-88
2022/11/01 15:19:51;;;;;;;5.05;2.97;;;19.80;62.50;;;;;;5026184;28;20199;-84
2022/11/01 15:22:19;;;;;;;2.90;2.60;;;19.70;62.90;;;;;;5028214;28;20271;-87
2022/11/01 15:24:46;;;;;;;4.05;2.53;;;19.80;63.10;;;;;;5029560;28;20189;-88
2022/11/01 15:27:20;;;;;;;3.33;2.72;;;19.60;64.00;;;;;;5009148;28;20227;-87
2022/11/01 15:29:47;;;;;;;5.40;2.72;;;19.40;64.90;;;;;;5023157;28;20219;-86
2022/11/01 15:32:25;;;;;;;4.00;2.83;;;19.30;65.60;;;;;;5023165;28;20217;-86
2022/11/01 15:34:53;;;;;;;8.73;2.95;;;19.10;66.30;;;;;;5026234;28;20607;-85
2022/11/01 15:37:27;;;;;;;4.90;3.10;;;19.00;67.30;;;;;;5027599;28;20197;-87
2022/11/01 15:39:53;;;;;;;3.38;2.58;;;18.90;68.60;;;;;;5023169;28;20193;-87
2022/11/01 15:42:24;;;;;;;4.45;2.90;;;18.70;68.80;;;;;;5029668;28;20221;-83
2022/11/01 15:44:50;;;;;;;4.32;3.10;;;18.60;69.90;;;;;;5031865;28;20177;-85
2022/11/01 15:47:21;;;;;;;6.45;3.47;;;18.50;70.60;;;;;;5030661;28;20197;-85
2022/11/01 15:49:57;;;;;;;4.05;2.60;;;18.40;70.90;;;;;;5031836;28;20254;-87
2022/11/01 15:52:26;;;;;;;5.53;3.15;;;18.10;73.40;;;;;;5035851;28;20320;-85
2022/11/01 15:55:07;;;;;;;4.15;2.90;;;17.80;73.80;;;;;;5035540;28;20177;-87
2022/11/01 15:57:39;;;;;;;3.67;2.78;;;17.80;74.30;;;;;;5035799;28;20238;-86
2022/11/01 16:00:21;;;;;;;6.22;3.10;;;17.80;75.00;;;;;;5033489;28;20702;-84
2022/11/01 16:02:53;;;;;;;3.60;3.03;;;17.60;75.50;;;;;;5033984;28;20679;-87
2022/11/01 16:05:22;;;;;;;6.32;2.63;;;17.60;76.30;;;;;;5034354;28;20200;-86
2022/11/01 16:07:48;;;;;;;4.45;2.95;;;17.70;76.80;;;;;;5033188;28;20193;-87
2022/11/01 16:10:26;;;;;;;3.47;2.47;;;17.60;77.70;;;;;;5029613;28;20926;-85
2022/11/01 16:12:53;;;;;;;3.80;2.72;;;17.70;77.50;;;;;;5032606;28;20238;-88
2022/11/01 16:15:32;;;;;;;4.50;2.80;;;17.70;78.40;;;;;;5035255;28;20189;-88
2022/11/01 16:18:00;;;;;;;6.10;2.65;;;17.60;76.40;;;;;;5030946;28;20219;-85
2022/11/01 16:20:36;;;;;;;5.25;3.08;;;17.20;78.10;;;;;;5025203;28;20223;-88
2022/11/01 16:23:05;;;;;;;5.70;4.22;;;17.30;78.30;;;;;;5025683;28;20224;-86
2022/11/01 16:25:33;;;;;;;8.05;4.50;;;17.50;76.00;;;;;;5026642;28;20198;-89
2022/11/01 16:28:07;;;;;;;6.40;4.60;;;17.50;76.40;;;;;;5025618;28;20189;-88
2022/11/01 16:30:35;;;;;;;6.35;3.95;;;17.30;77.60;;;;;;5023882;28;20239;-87
2022/11/01 16:33:07;;;;;;;7.18;3.97;;;17.20;80.10;;;;;;5027172;28;20229;-85
2022/11/01 16:35:34;;;;;;;6.75;3.90;;;17.30;78.40;;;;;;5028173;28;20200;-86
2022/11/01 16:38:01;;;;;;;22.10;20.20;;;17.20;79.90;;;;;;5025963;28;20196;-87
2022/11/01 16:40:33;;;;;;;18.85;17.45;;;16.90;81.90;;;;;;5026832;28;20759;-84
2022/11/01 16:42:58;;;;;;;15.43;14.02;;;16.80;83.40;;;;;;5028771;28;20587;-88
2022/11/01 16:45:25;;;;;;;16.55;14.88;;;16.80;83.60;;;;;;5028032;28;20256;-87
2022/11/01 16:47:51;;;;;;;7.65;5.45;;;16.80;82.70;;;;;;5029610;28;20200;-85
2022/11/01 16:50:20;;;;;;;8.13;7.07;;;16.70;83.10;;;;;;5030890;28;20188;-86
2022/11/01 16:52:46;;;;;;;12.85;8.20;;;16.60;85.20;;;;;;5034743;28;20220;-89
2022/11/01 16:55:13;;;;;;;12.25;8.50;;;16.50;85.40;;;;;;5034540;28;20216;-87
2022/11/01 16:57:40;;;;;;;9.07;6.75;;;16.50;85.60;;;;;;5031261;28;20227;-86
2022/11/01 17:00:13;;;;;;;6.70;6.07;;;16.40;85.90;;;;;;5013541;28;20200;-86
2022/11/01 17:02:39;;;;;;;6.07;5.07;;;16.30;86.80;;;;;;5026345;28;20213;-89
2022/11/01 17:05:19;;;;;;;8.88;4.60;;;16.30;86.40;;;;;;5029728;28;20176;-86
2022/11/01 17:07:47;;;;;;;5.75;4.47;;;16.40;85.50;;;;;;5028038;28;20735;-85
2022/11/01 17:10:18;;;;;;;9.52;5.78;;;16.30;86.50;;;;;;5025713;28;20268;-86
2022/11/01 17:12:44;;;;;;;9.90;6.45;;;16.30;86.10;;;;;;5027906;28;20750;-88
2022/11/01 17:15:14;;;;;;;10.15;6.10;;;16.30;86.70;;;;;;5033501;28;20200;-87
2022/11/01 17:17:41;;;;;;;7.32;6.10;;;16.30;87.20;;;;;;5032552;28;20219;-85
2022/11/01 17:20:21;;;;;;;8.20;6.05;;;16.20;87.40;;;;;;5029889;28;20201;-85
2022/11/01 17:22:49;;;;;;;6.30;5.70;;;16.30;86.40;;;;;;5034942;28;20219;-84
2022/11/01 17:25:19;;;;;;;9.43;5.63;;;16.20;87.90;;;;;;5038609;28;20177;-88
2022/11/01 17:27:46;;;;;;;8.00;5.95;;;16.20;87.80;;;;;;5046268;28;20207;-89
2022/11/01 17:30:11;;;;;;;7.22;5.28;;;16.20;88.40;;;;;;5044807;28;20239;-88
2022/11/01 17:32:37;;;;;;;8.00;5.05;;;16.10;88.40;;;;;;5047657;28;20189;-88
2022/11/01 17:35:03;;;;;;;6.07;5.40;;;16.20;87.90;;;;;;5033285;28;20205;-85
2022/11/01 17:37:31;;;;;;;8.70;5.82;;;16.10;88.70;;;;;;5025922;28;20196;-85
2022/11/01 17:39:57;;;;;;;10.18;5.68;;;16.10;88.60;;;;;;5024989;28;20192;-86
2022/11/01 17:42:23;;;;;;;6.00;5.15;;;16.00;89.00;;;;;;5026293;28;20307;-87
2022/11/01 17:44:49;;;;;;;7.75;5.43;;;16.00;89.60;;;;;;5026124;28;20290;-85
2022/11/01 17:47:14;;;;;;;5.53;5.00;;;16.00;89.30;;;;;;5027183;28;20706;-87
2022/11/01 17:49:40;;;;;;;6.22;5.50;;;16.00;89.40;;;;;;5026492;28;20197;-85
2022/11/01 17:52:06;;;;;;;7.28;5.13;;;16.00;89.60;;;;;;5026827;28;20230;-86
2022/11/01 17:54:32;;;;;;;5.28;4.78;;;15.90;87.70;;;;;;5027812;28;20211;-84
2022/11/01 17:56:58;;;;;;;5.88;4.88;;;15.80;88.40;;;;;;5029252;28;20206;-86
2022/11/01 17:59:23;;;;;;;5.97;4.93;;;15.60;88.90;;;;;;5031776;28;20195;-87
2022/11/01 18:01:49;;;;;;;9.45;5.18;;;15.60;89.40;;;;;;5027273;28;20234;-85
2022/11/01 18:04:15;;;;;;;6.82;4.60;;;15.50;90.20;;;;;;5028591;28;20199;-86
2022/11/01 18:06:41;;;;;;;8.55;4.82;;;15.50;90.90;;;;;;5029135;28;20600;-88
2022/11/01 18:09:23;;;;;;;8.85;5.18;;;15.50;91.40;;;;;;5029590;28;20243;-86
2022/11/01 18:12:01;;;;;;;5.65;5.07;;;15.50;90.70;;;;;;5026727;28;20582;-85